createdAt,value
2018-05-14T02:03:05.762Z,44.46
2018-05-14T02:04:05.723Z,44.56
2018-05-14T02:05:58.692Z,45.14
2018-05-14T02:06:58.751Z,44.94
2018-05-14T02:08:51.634Z,45.04
2018-05-14T02:09:51.608Z,45.14
2018-05-14T02:11:44.570Z,44.66
2018-05-14T02:12:44.546Z,44.37
2018-05-14T02:14:37.459Z,44.66
2018-05-14T02:15:38.903Z,44.85
2018-05-14T02:17:30.396Z,44.56
2018-05-14T02:18:30.381Z,44.18
2018-05-14T02:20:23.383Z,44.27
2018-05-14T02:21:23.330Z,44.18
2018-05-14T02:23:16.316Z,44.46
2018-05-14T02:24:16.297Z,44.18
2018-05-14T02:26:09.243Z,43.61
2018-05-14T02:27:09.221Z,44.66
2018-05-14T02:29:02.212Z,44.75
2018-05-14T02:30:02.201Z,44.37
2018-05-14T02:31:55.188Z,44.18
2018-05-14T02:32:55.152Z,44.27
2018-05-14T02:34:48.121Z,43.99
2018-05-14T02:35:48.106Z,43.78
2018-05-14T02:37:41.028Z,44.37
2018-05-14T02:38:40.991Z,44.18
2018-05-14T02:40:33.922Z,43.80
2018-05-14T02:41:33.904Z,43.90
2018-05-14T02:43:26.901Z,43.99
2018-05-14T02:44:26.865Z,44.09
2018-05-14T02:46:19.842Z,43.99
2018-05-14T02:47:19.817Z,44.18
2018-05-14T02:49:12.747Z,44.18
2018-05-14T02:50:12.728Z,43.99
2018-05-14T02:52:05.659Z,44.18
2018-05-14T02:53:05.646Z,44.18
2018-05-14T02:54:58.512Z,44.09
2018-05-14T02:55:58.496Z,43.99
2018-05-14T02:57:51.458Z,43.90
2018-05-14T02:58:51.431Z,43.80
2018-05-14T03:00:44.402Z,43.80
2018-05-14T03:01:44.387Z,43.90
2018-05-14T03:03:37.363Z,44.09
2018-05-14T03:04:37.334Z,44.09
2018-05-14T03:06:30.320Z,44.18
2018-05-14T03:07:30.290Z,43.99
2018-05-14T03:09:23.200Z,44.09
2018-05-14T03:10:23.179Z,44.27
2018-05-14T03:12:16.121Z,44.27
2018-05-14T03:13:16.099Z,44.09
2018-05-14T03:15:09.111Z,44.66
2018-05-14T03:16:09.086Z,44.18
2018-05-14T03:18:02.043Z,44.56
2018-05-14T03:19:02.010Z,44.37
2018-05-14T03:20:54.978Z,44.56
2018-05-14T03:21:54.974Z,44.27
2018-05-14T03:23:47.908Z,44.54
2018-05-14T03:24:47.876Z,44.27
2018-05-14T03:26:40.784Z,45.21
2018-05-14T03:27:40.765Z,45.30
2018-05-14T03:29:33.742Z,45.01
2018-05-14T03:30:33.719Z,44.64
2018-05-14T03:32:26.712Z,45.11
2018-05-14T03:33:26.679Z,45.30
2018-05-14T03:35:19.662Z,45.21
2018-05-14T03:36:19.626Z,45.11
2018-05-14T03:38:12.616Z,44.82
2018-05-14T03:39:12.585Z,45.11
2018-05-14T03:41:05.556Z,44.92
2018-05-14T03:42:05.557Z,45.30
2018-05-14T03:43:58.698Z,45.30
2018-05-14T03:44:58.672Z,45.97
2018-05-14T03:46:51.663Z,45.59
2018-05-14T03:47:51.642Z,45.30
2018-05-14T03:49:44.628Z,45.78
2018-05-14T03:50:44.606Z,46.15
2018-05-14T03:52:37.585Z,45.97
2018-05-14T03:53:37.556Z,46.06
2018-05-14T03:55:30.522Z,46.15
2018-05-14T03:56:30.491Z,46.35
2018-05-14T03:58:23.448Z,46.35
2018-05-14T03:59:23.416Z,46.15
2018-05-14T04:01:16.334Z,45.78
2018-05-14T04:02:16.373Z,46.15
2018-05-14T04:04:09.293Z,46.15
2018-05-14T04:05:09.266Z,46.15
2018-05-14T04:07:02.165Z,46.06
2018-05-14T04:08:02.149Z,46.06
2018-05-14T04:09:55.103Z,45.97
2018-05-14T04:10:55.066Z,45.97
2018-05-14T04:12:48.046Z,45.87
2018-05-14T04:13:48.026Z,46.06
2018-05-14T04:15:40.951Z,45.97
2018-05-14T04:16:41.002Z,45.97
2018-05-14T04:18:33.848Z,45.87
2018-05-14T04:19:33.833Z,45.87
2018-05-14T04:21:26.755Z,46.15
2018-05-14T04:22:26.730Z,46.47
2018-05-14T04:24:19.677Z,46.28
2018-05-14T04:25:19.644Z,46.18
2018-05-14T04:27:12.619Z,46.75
2018-05-14T04:28:12.598Z,47.04
2018-05-14T04:30:05.553Z,46.84
2018-05-14T04:31:05.530Z,47.13
2018-05-14T04:32:58.447Z,46.75
2018-05-14T04:33:58.424Z,46.75
2018-05-14T04:35:51.386Z,47.23
2018-05-14T04:36:51.362Z,46.84
2018-05-14T04:38:44.324Z,47.42
2018-05-14T04:39:44.309Z,47.13
2018-05-14T04:42:28.385Z,47.20
2018-05-14T04:43:28.282Z,47.11
2018-05-14T04:45:21.231Z,46.84
2018-05-14T04:46:21.229Z,47.13
2018-05-14T04:48:14.196Z,47.04
2018-05-14T04:49:14.171Z,47.13
2018-05-14T04:51:07.104Z,47.11
2018-05-14T04:52:07.081Z,47.02
2018-05-14T04:53:07.084Z,46.73
2018-05-14T04:54:07.064Z,47.11
2018-05-14T04:55:07.074Z,47.49
2018-05-14T04:56:07.063Z,47.30
2018-05-14T04:57:07.066Z,47.30
2018-05-14T04:58:07.080Z,47.30
2018-05-14T04:59:07.062Z,46.92
2018-05-14T05:00:07.046Z,47.23
2018-05-14T05:01:07.054Z,47.11
2018-05-14T05:02:07.031Z,46.66
2018-05-14T05:03:07.025Z,46.66
2018-05-14T05:04:07.018Z,47.02
2018-05-14T05:05:07.017Z,46.73
2018-05-14T05:06:07.004Z,46.84
2018-05-14T05:07:07.005Z,46.47
2018-05-14T05:08:07.003Z,46.47
2018-05-14T05:09:06.994Z,46.18
2018-05-14T05:10:06.992Z,46.18
2018-05-14T05:11:06.991Z,46.18
2018-05-14T05:12:06.980Z,46.37
2018-05-14T05:13:06.976Z,46.37
2018-05-14T05:14:06.976Z,46.18
2018-05-14T05:15:06.963Z,46.28
2018-05-14T05:16:06.962Z,46.47
2018-05-14T05:17:07.015Z,46.28
2018-05-14T05:18:06.954Z,46.28
2018-05-14T05:19:06.946Z,46.56
2018-05-14T05:20:06.938Z,46.28
2018-05-14T05:21:06.974Z,46.37
2018-05-14T05:22:06.928Z,46.66
2018-05-14T05:23:06.921Z,46.84
2018-05-14T05:24:06.923Z,47.23
2018-05-14T05:25:06.913Z,47.13
2018-05-14T05:26:06.903Z,46.94
2018-05-14T05:27:06.905Z,47.04
2018-05-14T05:28:06.901Z,47.04
2018-05-14T05:29:06.892Z,47.42
2018-05-14T05:30:06.884Z,47.23
2018-05-14T05:31:06.887Z,47.32
2018-05-14T05:32:06.893Z,47.71
2018-05-14T05:33:06.870Z,47.34
2018-05-14T05:34:06.870Z,47.34
2018-05-14T05:35:06.866Z,47.73
2018-05-14T05:36:06.865Z,47.73
2018-05-14T05:37:06.853Z,48.11
2018-05-14T05:38:06.846Z,48.39
2018-05-14T05:39:06.847Z,49.16
2018-05-14T05:40:06.852Z,49.44
2018-05-14T05:41:06.835Z,49.26
2018-05-14T05:42:06.837Z,49.44
2018-05-14T05:43:06.826Z,49.92
2018-05-14T05:44:06.817Z,49.44
2018-05-14T05:45:06.820Z,50.11
2018-05-14T05:46:06.814Z,51.16
2018-05-14T05:47:06.812Z,51.82
2018-05-14T05:48:06.806Z,52.01
2018-05-14T05:49:06.807Z,52.40
2018-05-14T05:50:06.805Z,52.20
2018-05-14T05:51:06.791Z,53.35
2018-05-14T05:52:06.785Z,54.68
2018-05-14T05:53:06.782Z,54.68
2018-05-14T05:54:06.776Z,55.92
2018-05-14T05:55:06.777Z,56.11
2018-05-14T05:56:06.770Z,55.26
2018-05-14T05:57:06.769Z,54.78
2018-05-14T05:58:06.758Z,54.78
2018-05-14T05:59:06.766Z,55.66
2018-05-14T06:00:06.761Z,56.59
2018-05-14T06:01:06.749Z,58.40
2018-05-14T06:02:06.750Z,60.59
2018-05-14T06:03:06.743Z,60.69
2018-05-14T06:04:06.738Z,61.54
2018-05-14T06:05:06.734Z,61.64
2018-05-14T06:06:06.751Z,60.02
2018-05-14T06:07:06.727Z,59.16
2018-05-14T06:08:06.720Z,58.21
2018-05-14T06:09:06.716Z,58.50
2018-05-14T06:10:06.714Z,56.97
2018-05-14T06:11:06.707Z,56.30
2018-05-14T06:12:06.704Z,55.83
2018-05-14T06:13:06.695Z,55.83
2018-05-14T06:14:06.694Z,57.07
2018-05-14T06:15:06.725Z,58.02
2018-05-14T06:16:06.684Z,58.50
2018-05-14T06:17:06.677Z,58.78
2018-05-14T06:18:06.682Z,59.45
2018-05-14T06:19:06.682Z,60.69
2018-05-14T06:20:06.680Z,60.02
2018-05-14T06:21:06.667Z,59.45
2018-05-14T06:22:06.662Z,60.78
2018-05-14T06:23:06.656Z,60.02
2018-05-14T06:24:06.652Z,60.21
2018-05-14T06:25:06.651Z,59.26
2018-05-14T06:26:06.644Z,60.40
2018-05-14T06:27:06.644Z,59.45
2018-05-14T06:28:06.632Z,59.26
2018-05-14T06:29:06.630Z,57.64
2018-05-14T06:30:06.636Z,55.83
2018-05-14T06:31:06.855Z,54.68
2018-05-14T06:32:06.844Z,54.49
2018-05-14T06:33:06.748Z,52.97
2018-05-14T06:34:06.815Z,51.82
2018-05-14T06:35:06.783Z,52.59
2018-05-14T06:36:06.748Z,53.64
2018-05-14T06:37:06.751Z,53.44
2018-05-14T06:38:06.636Z,53.25
2018-05-14T06:39:06.724Z,54.49
2018-05-14T06:40:06.612Z,53.64
2018-05-14T06:41:06.637Z,52.49
2018-05-14T06:42:06.639Z,51.25
2018-05-14T06:43:06.575Z,52.01
2018-05-14T06:44:06.616Z,52.30
2018-05-14T06:45:06.676Z,52.11
2018-05-14T06:46:06.562Z,52.11
2018-05-14T06:47:06.556Z,53.06
2018-05-14T06:48:06.553Z,54.49
2018-05-14T06:49:06.551Z,53.64
2018-05-14T06:50:06.550Z,53.44
2018-05-14T06:51:06.560Z,52.30
2018-05-14T06:52:06.535Z,53.16
2018-05-14T06:53:06.530Z,52.30
2018-05-14T06:54:06.530Z,53.83
2018-05-14T06:55:06.547Z,54.88
2018-05-14T06:56:06.521Z,54.78
2018-05-14T06:57:06.517Z,53.73
2018-05-14T06:58:06.595Z,53.83
2018-05-14T06:59:06.511Z,53.06
2018-05-14T07:00:06.500Z,51.64
2018-05-14T07:01:06.498Z,51.25
2018-05-14T07:02:06.492Z,51.06
2018-05-14T07:03:06.541Z,51.73
2018-05-14T07:04:06.480Z,51.54
2018-05-14T07:05:06.479Z,51.16
2018-05-14T07:06:06.477Z,50.40
2018-05-14T07:07:06.462Z,50.01
2018-05-14T07:08:06.467Z,48.58
2018-05-14T07:09:06.467Z,48.68
2018-05-14T07:10:06.461Z,48.78
2018-05-14T07:11:06.453Z,49.63
2018-05-14T07:12:06.448Z,49.92
2018-05-14T07:13:06.437Z,50.68
2018-05-14T07:14:06.444Z,50.59
2018-05-14T07:15:06.492Z,50.49
2018-05-14T07:16:06.432Z,51.06
2018-05-14T07:17:06.432Z,52.09
2018-05-14T07:18:06.425Z,51.80
2018-05-14T07:19:06.415Z,50.49
2018-05-14T07:20:06.408Z,50.30
2018-05-14T07:21:06.421Z,50.30
2018-05-14T07:22:06.410Z,50.21
2018-05-14T07:23:06.400Z,49.54
2018-05-14T07:24:06.396Z,50.49
2018-05-14T07:25:06.398Z,50.87
2018-05-14T07:26:06.393Z,50.97
2018-05-14T07:27:06.380Z,52.20
2018-05-14T07:28:06.381Z,51.25
2018-05-14T07:29:06.378Z,51.54
2018-05-14T07:30:06.441Z,50.90
2018-05-14T07:31:06.366Z,51.54
2018-05-14T07:32:06.364Z,52.04
2018-05-14T07:33:06.356Z,52.14
2018-05-14T07:34:06.353Z,54.24
2018-05-14T07:35:06.349Z,54.24
2018-05-14T07:36:06.342Z,54.61
2018-05-14T07:37:06.338Z,54.43
2018-05-14T07:38:06.340Z,54.24
2018-05-14T07:39:06.334Z,56.17
2018-05-14T07:40:06.326Z,56.84
2018-05-14T07:41:06.326Z,58.46
2018-05-14T07:42:06.319Z,60.94
2018-05-14T07:43:06.318Z,64.09
2018-05-14T07:44:06.327Z,66.56
2018-05-14T07:45:06.312Z,65.04
2018-05-14T07:46:06.354Z,65.80
2018-05-14T07:47:06.299Z,68.28
2018-05-14T07:48:06.328Z,70.57
2018-05-14T07:49:06.297Z,69.71
2018-05-14T07:50:06.285Z,69.43
2018-05-14T07:51:06.290Z,69.29
2018-05-14T07:52:06.289Z,67.42
2018-05-14T07:53:06.284Z,66.28
2018-05-14T07:54:06.283Z,65.61
2018-05-14T07:55:06.273Z,66.22
2018-05-14T07:56:06.268Z,67.65
2018-05-14T07:57:06.261Z,71.18
2018-05-14T07:58:06.262Z,72.23
2018-05-14T07:59:06.259Z,73.85
2018-05-14T08:00:06.257Z,74.52
2018-05-14T08:01:06.250Z,76.52
2018-05-14T08:02:06.246Z,79.10
2018-05-14T08:03:06.251Z,80.15
2018-05-14T08:04:06.242Z,81.14
2018-05-14T08:05:06.247Z,85.91
2018-05-14T08:06:06.263Z,86.77
2018-05-14T08:07:06.233Z,85.15
2018-05-14T08:08:06.228Z,87.48
2018-05-14T08:09:06.231Z,90.16
2018-05-14T08:10:06.239Z,88.63
2018-05-14T08:11:06.221Z,86.63
2018-05-14T08:12:06.219Z,89.01
2018-05-14T08:13:06.220Z,92.31
2018-05-14T08:14:06.217Z,94.22
2018-05-14T08:15:06.211Z,93.55
2018-05-14T08:16:06.215Z,89.45
2018-05-14T08:17:06.212Z,90.64
2018-05-14T08:18:06.203Z,85.58
2018-05-14T08:19:06.203Z,84.06
2018-05-14T08:20:06.208Z,81.10
2018-05-14T08:21:06.194Z,86.73
2018-05-14T08:22:06.194Z,88.45
2018-05-14T08:23:06.213Z,84.44
2018-05-14T08:24:06.187Z,88.45
2018-05-14T08:25:06.187Z,92.26
2018-05-14T08:26:06.172Z,87.49
2018-05-14T08:27:06.182Z,87.07
2018-05-14T08:28:06.180Z,79.57
2018-05-14T08:29:06.177Z,79.10
2018-05-14T08:30:06.172Z,80.77
2018-05-14T08:31:06.171Z,81.38
2018-05-14T08:32:06.167Z,83.58
2018-05-14T08:33:06.168Z,88.73
2018-05-14T08:34:06.164Z,85.58
2018-05-14T08:35:06.165Z,90.45
2018-05-14T08:36:06.158Z,88.01
2018-05-14T08:37:06.217Z,88.20
2018-05-14T08:38:06.156Z,87.82
2018-05-14T08:39:06.144Z,91.16
2018-05-14T08:40:06.147Z,94.07
2018-05-14T08:41:06.147Z,90.97
2018-05-14T08:42:06.217Z,89.73
2018-05-14T08:43:06.140Z,88.01
2018-05-14T08:44:06.139Z,88.78
2018-05-14T08:45:06.137Z,94.51
2018-05-14T08:46:06.258Z,90.40
2018-05-14T08:47:06.136Z,95.22
2018-05-14T08:48:06.173Z,91.93
2018-05-14T08:49:06.129Z,91.07
2018-05-14T08:50:06.123Z,87.63
2018-05-14T08:51:06.118Z,87.97
2018-05-14T08:52:06.128Z,87.02
2018-05-14T08:53:06.116Z,82.63
2018-05-14T08:54:06.125Z,82.15
2018-05-14T08:55:06.110Z,85.05
2018-05-14T08:56:06.109Z,84.48
2018-05-14T08:57:06.110Z,88.30
2018-05-14T08:58:06.104Z,90.69
2018-05-14T08:59:06.105Z,85.72
2018-05-14T09:00:06.104Z,85.63
2018-05-14T09:01:06.238Z,85.87
2018-05-14T09:02:06.094Z,84.00
2018-05-14T09:03:06.095Z,88.26
2018-05-14T09:04:06.095Z,84.82
2018-05-14T09:05:06.085Z,80.72
2018-05-14T09:06:06.158Z,80.81
2018-05-14T09:07:06.136Z,79.61
2018-05-14T09:08:06.090Z,78.37
2018-05-14T09:09:06.074Z,78.94
2018-05-14T09:10:06.075Z,80.28
2018-05-14T09:11:06.067Z,83.05
2018-05-14T09:12:06.085Z,83.43
2018-05-14T09:13:06.094Z,84.67
2018-05-14T09:14:06.101Z,86.49
2018-05-14T09:15:06.107Z,87.30
2018-05-14T09:16:06.114Z,81.01
2018-05-14T09:17:06.055Z,77.00
2018-05-14T09:18:06.054Z,76.52
2018-05-14T09:19:06.044Z,77.47
2018-05-14T09:20:06.040Z,76.62
2018-05-14T09:21:06.044Z,79.38
2018-05-14T09:22:06.081Z,80.33
2018-05-14T09:23:06.034Z,80.76
2018-05-14T09:24:06.031Z,82.67
2018-05-14T09:25:06.029Z,84.86
2018-05-14T09:26:06.021Z,84.00
2018-05-14T09:27:06.034Z,85.05
2018-05-14T09:28:06.021Z,85.82
2018-05-14T09:29:06.020Z,84.00
2018-05-14T09:30:06.027Z,85.53
2018-05-14T09:31:06.017Z,85.86
2018-05-14T09:32:06.026Z,86.34
2018-05-14T09:33:06.010Z,89.64
2018-05-14T09:34:06.028Z,95.27
2018-05-14T09:35:06.008Z,88.01
2018-05-14T09:36:06.009Z,90.97
2018-05-14T09:37:06.000Z,86.77
2018-05-14T09:38:05.992Z,84.39
2018-05-14T09:39:05.994Z,84.86
2018-05-14T09:40:05.986Z,88.20
2018-05-14T09:41:05.985Z,87.25
2018-05-14T09:42:05.983Z,88.87
2018-05-14T09:43:05.981Z,87.10
2018-05-14T09:44:05.981Z,88.73
2018-05-14T09:45:05.976Z,86.91
2018-05-14T09:46:05.976Z,88.44
2018-05-14T09:47:05.970Z,90.06
2018-05-14T09:48:05.963Z,89.39
2018-05-14T09:49:05.970Z,93.79
2018-05-14T09:50:05.963Z,90.59
2018-05-14T09:51:05.957Z,89.15
2018-05-14T09:52:05.956Z,95.07
2018-05-14T09:53:05.972Z,95.07
2018-05-14T09:54:05.956Z,96.99
2018-05-14T09:55:05.948Z,96.89
2018-05-14T09:56:05.965Z,97.85
2018-05-14T09:57:05.944Z,97.56
2018-05-14T09:58:05.946Z,99.57
2018-05-14T09:59:06.118Z,96.99
2018-05-14T10:00:05.938Z,98.18
2018-05-14T10:01:05.939Z,94.93
2018-05-14T10:02:05.950Z,94.98
2018-05-14T10:03:05.940Z,91.45
2018-05-14T10:04:05.928Z,89.73
2018-05-14T10:05:05.926Z,88.78
2018-05-14T10:06:05.928Z,87.63
2018-05-14T10:07:06.005Z,85.25
2018-05-14T10:08:05.923Z,84.48
2018-05-14T10:09:05.927Z,83.34
2018-05-14T10:10:05.914Z,86.30
2018-05-14T10:11:05.914Z,84.29
2018-05-14T10:12:05.913Z,84.29
2018-05-14T10:13:06.027Z,85.25
2018-05-14T10:14:05.912Z,85.91
2018-05-14T10:15:05.906Z,85.91
2018-05-14T10:16:05.904Z,84.10
2018-05-14T10:17:05.914Z,87.02
2018-05-14T10:18:05.899Z,86.82
2018-05-14T10:19:05.901Z,85.97
2018-05-14T10:20:05.891Z,83.11
2018-05-14T10:21:05.883Z,83.58
2018-05-14T10:22:05.907Z,80.81
2018-05-14T10:23:05.890Z,81.10
2018-05-14T10:24:05.887Z,83.11
2018-05-14T10:25:05.888Z,84.06
2018-05-14T10:26:05.880Z,83.58
2018-05-14T10:27:05.872Z,83.29
2018-05-14T10:28:05.874Z,82.72
2018-05-14T10:29:05.884Z,83.58
2018-05-14T10:30:05.897Z,85.11
2018-05-14T10:31:05.861Z,84.06
2018-05-14T10:32:05.951Z,81.77
2018-05-14T10:33:05.861Z,82.06
2018-05-14T10:34:05.854Z,81.58
2018-05-14T10:35:05.862Z,81.43
2018-05-14T10:36:05.849Z,80.09
2018-05-14T10:37:05.846Z,77.89
2018-05-14T10:38:05.847Z,81.43
2018-05-14T10:39:05.838Z,85.49
2018-05-14T10:40:05.863Z,84.06
2018-05-14T10:41:05.842Z,82.57
2018-05-14T10:42:05.830Z,82.34
2018-05-14T10:43:05.827Z,80.95
2018-05-14T10:44:05.820Z,82.19
2018-05-14T10:45:05.818Z,81.04
2018-05-14T10:46:05.819Z,81.90
2018-05-14T10:47:05.817Z,78.94
2018-05-14T10:48:05.817Z,82.38
2018-05-14T10:49:05.815Z,84.67
2018-05-14T10:50:05.801Z,86.01
2018-05-14T10:51:05.806Z,84.39
2018-05-14T10:52:05.800Z,84.10
2018-05-14T10:53:05.792Z,83.53
2018-05-14T10:54:05.793Z,82.95
2018-05-14T10:55:05.785Z,85.86
2018-05-14T10:56:05.788Z,90.54
2018-05-14T10:57:05.785Z,91.69
2018-05-14T10:58:05.784Z,92.02
2018-05-14T10:59:05.776Z,92.02
2018-05-14T11:00:05.776Z,90.88
2018-05-14T11:01:05.775Z,90.50
2018-05-14T11:02:05.761Z,89.11
2018-05-14T11:03:05.765Z,91.30
2018-05-14T11:04:05.809Z,90.64
2018-05-14T11:05:05.763Z,92.26
2018-05-14T11:06:05.789Z,93.60
2018-05-14T11:07:05.756Z,92.64
2018-05-14T11:08:05.747Z,95.03
2018-05-14T11:09:05.748Z,91.78
2018-05-14T11:10:05.742Z,91.40
2018-05-14T11:11:05.749Z,96.46
2018-05-14T11:12:05.737Z,93.79
2018-05-14T11:13:05.741Z,94.31
2018-05-14T11:14:05.741Z,95.65
2018-05-14T11:15:05.727Z,95.46
2018-05-14T11:16:05.732Z,96.89
2018-05-14T11:17:05.737Z,96.03
2018-05-14T11:18:05.725Z,94.41
2018-05-14T11:19:05.721Z,96.70
2018-05-14T11:20:05.740Z,97.71
2018-05-14T11:21:05.722Z,98.52
2018-05-14T11:22:05.723Z,98.13
2018-05-14T11:23:05.710Z,97.94
2018-05-14T11:24:05.707Z,98.90
2018-05-14T11:25:05.708Z,99.80
2018-05-14T11:26:05.701Z,98.18
2018-05-14T11:27:05.697Z,95.41
2018-05-14T11:28:05.704Z,95.98
2018-05-14T11:29:05.702Z,95.22
2018-05-14T11:30:05.701Z,95.12
2018-05-14T11:31:05.693Z,94.27
2018-05-14T11:32:05.691Z,93.88
2018-05-14T11:33:05.684Z,94.17
2018-05-14T11:34:05.683Z,93.31
2018-05-14T11:35:05.682Z,96.75
2018-05-14T11:36:05.678Z,94.84
2018-05-14T11:37:05.681Z,94.07
2018-05-14T11:38:05.671Z,94.93
2018-05-14T11:39:05.676Z,94.27
2018-05-14T11:40:05.667Z,94.17
2018-05-14T11:41:05.670Z,95.84
2018-05-14T11:42:05.661Z,94.98
2018-05-14T11:43:05.665Z,95.56
2018-05-14T11:44:05.679Z,99.23
2018-05-14T11:45:05.654Z,95.70
2018-05-14T11:46:05.645Z,93.60
2018-05-14T11:47:05.649Z,96.08
2018-05-14T11:48:05.666Z,94.46
2018-05-14T11:49:05.643Z,95.07
2018-05-14T11:50:05.649Z,97.28
2018-05-14T11:51:05.637Z,97.08
2018-05-14T11:52:05.637Z,96.80
2018-05-14T11:53:05.636Z,98.90
2018-05-14T11:54:05.633Z,99.76
2018-05-14T11:55:05.627Z,98.23
2018-05-14T11:56:05.635Z,99.28
2018-05-14T11:57:05.629Z,99.66
2018-05-14T11:58:05.625Z,99.99
2018-05-14T11:59:05.620Z,99.99
2018-05-14T12:00:05.616Z,98.95
2018-05-14T12:01:05.629Z,99.99
2018-05-14T12:02:05.620Z,99.99
2018-05-14T12:03:05.709Z,99.99
2018-05-14T12:04:05.610Z,99.99
2018-05-14T12:05:05.610Z,99.99
2018-05-14T12:06:05.690Z,99.99
2018-05-14T12:07:05.606Z,99.99
2018-05-14T12:08:05.596Z,99.99
2018-05-14T12:09:05.618Z,99.99
2018-05-14T12:10:05.618Z,99.99
2018-05-14T12:11:05.596Z,99.99
2018-05-14T12:12:05.599Z,99.99
2018-05-14T12:13:05.590Z,99.99
2018-05-14T12:14:05.606Z,99.99
2018-05-14T12:15:05.588Z,99.99
2018-05-14T12:16:05.598Z,99.99
2018-05-14T12:17:05.590Z,99.99
2018-05-14T12:18:05.663Z,99.99
2018-05-14T12:19:05.690Z,99.99
2018-05-14T12:20:05.582Z,99.99
2018-05-14T12:21:05.578Z,99.99
2018-05-14T12:22:05.578Z,99.99
2018-05-14T12:23:05.571Z,99.99
2018-05-14T12:24:05.574Z,99.99
2018-05-14T12:25:05.569Z,99.99
2018-05-14T12:26:05.576Z,99.99
2018-05-14T12:27:05.570Z,99.99
2018-05-14T12:28:05.566Z,99.99
2018-05-14T12:29:05.568Z,99.99
2018-05-14T12:30:05.565Z,99.99
2018-05-14T12:31:05.564Z,99.99
2018-05-14T12:32:05.591Z,99.99
2018-05-14T12:33:05.554Z,99.99
2018-05-14T12:34:05.568Z,99.99
2018-05-14T12:35:05.552Z,99.99
2018-05-14T12:36:05.555Z,99.99
2018-05-14T12:37:05.568Z,99.99
2018-05-14T12:38:05.547Z,99.99
2018-05-14T12:39:05.546Z,99.99
2018-05-14T12:40:05.541Z,99.99
2018-05-14T12:41:05.592Z,99.99
2018-05-14T12:42:05.547Z,99.99
2018-05-14T12:43:05.539Z,99.99
2018-05-14T12:44:05.529Z,99.99
2018-05-14T12:45:05.535Z,99.99
2018-05-14T12:46:05.554Z,99.99
2018-05-14T12:47:05.536Z,99.99
2018-05-14T12:48:05.543Z,99.99
2018-05-14T12:49:05.534Z,99.99
2018-05-14T12:50:05.532Z,99.99
2018-05-14T12:51:05.528Z,99.99
2018-05-14T12:52:05.530Z,99.99
2018-05-14T12:53:05.553Z,99.99
2018-05-14T12:54:05.522Z,99.99
2018-05-14T12:55:05.519Z,99.99
2018-05-14T12:56:05.517Z,99.99
2018-05-14T12:57:05.524Z,99.99
2018-05-14T12:58:05.514Z,99.99
2018-05-14T12:59:05.511Z,99.99
2018-05-14T13:00:05.511Z,99.99
2018-05-14T13:01:05.510Z,99.99
2018-05-14T13:02:05.559Z,99.99
2018-05-14T13:03:05.512Z,98.38
2018-05-14T13:04:05.507Z,99.99
2018-05-14T13:05:05.508Z,99.99
2018-05-14T13:06:05.497Z,99.99
2018-05-14T13:07:05.527Z,99.99
2018-05-14T13:08:05.494Z,99.99
2018-05-14T13:09:05.493Z,99.99
2018-05-14T13:10:05.487Z,99.99
2018-05-14T13:11:05.491Z,99.99
2018-05-14T13:12:05.490Z,99.99
2018-05-14T13:13:05.567Z,99.99
2018-05-14T13:14:05.483Z,99.99
2018-05-14T13:15:05.482Z,99.99
2018-05-14T13:16:05.482Z,99.99
2018-05-14T13:17:06.234Z,99.99
2018-05-14T13:18:05.480Z,99.99
2018-05-14T13:19:05.560Z,99.99
2018-05-14T13:20:05.471Z,99.99
2018-05-14T13:21:05.472Z,99.99
2018-05-14T13:22:05.465Z,99.99
2018-05-14T13:23:05.472Z,99.99
2018-05-14T13:24:05.472Z,99.99
2018-05-14T13:25:05.465Z,99.99
2018-05-14T13:26:05.470Z,99.99
2018-05-14T13:27:05.454Z,99.99
2018-05-14T13:28:05.466Z,99.99
2018-05-14T13:29:05.464Z,99.99
2018-05-14T13:30:05.468Z,99.99
2018-05-14T13:31:05.462Z,99.99
2018-05-14T13:32:05.500Z,99.99
2018-05-14T13:33:05.517Z,99.99
2018-05-14T13:34:05.461Z,99.99
2018-05-14T13:35:05.455Z,99.99
2018-05-14T13:36:05.457Z,99.99
2018-05-14T13:37:05.453Z,99.99
2018-05-14T13:38:05.707Z,99.99
2018-05-14T13:39:05.455Z,99.99
2018-05-14T13:40:05.444Z,99.99
2018-05-14T13:41:05.447Z,99.33
2018-05-14T13:42:05.448Z,99.99
2018-05-14T13:43:05.445Z,97.99
2018-05-14T13:44:05.448Z,97.52
2018-05-14T13:45:05.436Z,96.70
2018-05-14T13:46:05.436Z,96.22
2018-05-14T13:47:05.430Z,96.13
2018-05-14T13:48:05.433Z,95.84
2018-05-14T13:49:05.435Z,94.60
2018-05-14T13:50:05.425Z,95.07
2018-05-14T13:51:05.471Z,92.07
2018-05-14T13:52:05.430Z,90.73
2018-05-14T13:53:05.423Z,89.01
2018-05-14T13:54:05.415Z,89.01
2018-05-14T13:55:05.412Z,88.63
2018-05-14T13:56:05.412Z,86.91
2018-05-14T13:57:05.412Z,86.34
2018-05-14T13:58:05.407Z,86.43
2018-05-14T13:59:05.404Z,86.15
2018-05-14T14:00:05.394Z,86.19
2018-05-14T14:01:05.383Z,86.38
2018-05-14T14:02:05.397Z,86.76
2018-05-14T14:03:05.388Z,86.19
2018-05-14T14:04:05.389Z,87.43
2018-05-14T14:05:05.378Z,89.73
2018-05-14T14:06:05.384Z,87.05
2018-05-14T14:07:05.380Z,86.67
2018-05-14T14:08:05.371Z,86.00
2018-05-14T14:09:05.365Z,84.47
2018-05-14T14:10:05.366Z,84.47
2018-05-14T14:11:05.361Z,84.19
2018-05-14T14:12:05.357Z,82.75
2018-05-14T14:13:05.356Z,81.13
2018-05-14T14:14:05.356Z,81.09
2018-05-14T14:15:05.352Z,81.99
2018-05-14T14:16:05.347Z,82.18
2018-05-14T14:17:05.422Z,84.38
2018-05-14T14:18:05.342Z,82.52
2018-05-14T14:19:05.340Z,82.65
2018-05-14T14:20:05.336Z,81.79
2018-05-14T14:21:05.331Z,82.28
2018-05-14T14:22:05.332Z,81.70
2018-05-14T14:23:05.344Z,82.18
2018-05-14T14:24:05.457Z,84.95
2018-05-14T14:25:05.320Z,82.65
2018-05-14T14:26:05.318Z,82.51
2018-05-14T14:27:05.312Z,85.38
2018-05-14T14:28:05.312Z,88.24
2018-05-14T14:29:05.313Z,87.57
2018-05-14T14:30:05.302Z,90.73
2018-05-14T14:31:05.310Z,88.39
2018-05-14T14:32:05.298Z,90.11
2018-05-14T14:33:05.298Z,92.11
2018-05-14T14:34:05.289Z,90.39
2018-05-14T14:35:05.295Z,90.59
2018-05-14T14:36:05.297Z,87.53
2018-05-14T14:37:05.301Z,87.53
2018-05-14T14:38:05.282Z,87.24
2018-05-14T14:39:05.287Z,84.38
2018-05-14T14:40:05.293Z,85.96
2018-05-14T14:41:05.260Z,87.87
2018-05-14T14:42:05.313Z,82.90
2018-05-14T14:43:05.267Z,83.18
2018-05-14T14:44:05.268Z,79.56
2018-05-14T14:45:05.260Z,79.36
2018-05-14T14:46:05.263Z,77.84
2018-05-14T14:47:05.252Z,78.41
2018-05-14T14:48:05.245Z,77.17
2018-05-14T14:49:05.278Z,77.78
2018-05-14T14:50:05.247Z,78.83
2018-05-14T14:51:05.260Z,80.27
2018-05-14T14:52:05.240Z,80.65
2018-05-14T14:53:05.248Z,82.84
2018-05-14T14:54:05.269Z,81.70
2018-05-14T14:55:05.242Z,86.86
2018-05-14T14:56:05.237Z,87.95
2018-05-14T14:57:05.237Z,87.38
2018-05-14T14:58:05.221Z,85.09
2018-05-14T14:59:05.230Z,91.11
2018-05-14T15:00:05.226Z,89.67
2018-05-14T15:01:05.218Z,90.16
2018-05-14T15:02:05.212Z,92.35
2018-05-14T15:03:05.214Z,90.44
2018-05-14T15:04:05.220Z,93.21
2018-05-14T15:05:05.200Z,93.69
2018-05-14T15:06:05.320Z,95.51
2018-05-14T15:07:05.206Z,91.39
2018-05-14T15:08:05.186Z,94.65
2018-05-14T15:09:05.187Z,94.26
2018-05-14T15:10:05.187Z,94.70
2018-05-14T15:11:05.183Z,95.32
2018-05-14T15:12:05.181Z,95.27
2018-05-14T15:13:05.183Z,96.32
2018-05-14T15:14:05.180Z,95.07
2018-05-14T15:15:05.180Z,97.18
2018-05-14T15:16:05.173Z,98.14
2018-05-14T15:17:05.182Z,97.66
2018-05-14T15:18:05.190Z,99.99
2018-05-14T15:19:05.175Z,99.99
2018-05-14T15:20:05.219Z,99.57
2018-05-14T15:21:05.166Z,99.99
2018-05-14T15:22:05.164Z,99.99
2018-05-14T15:23:05.164Z,99.99
2018-05-14T15:24:05.174Z,99.99
2018-05-14T15:25:05.159Z,99.99
2018-05-14T15:26:05.155Z,99.99
2018-05-14T15:27:05.155Z,99.90
2018-05-14T15:28:05.152Z,97.61
2018-05-14T15:29:05.147Z,98.18
2018-05-14T15:30:05.154Z,99.33
2018-05-14T15:31:05.144Z,97.61
2018-05-14T15:32:05.138Z,98.18
2018-05-14T15:33:05.174Z,96.37
2018-05-14T15:34:05.140Z,95.65
2018-05-14T15:35:05.141Z,96.03
2018-05-14T15:36:05.128Z,97.99
2018-05-14T15:37:05.129Z,96.37
2018-05-14T15:38:05.129Z,95.98
2018-05-14T15:39:05.123Z,94.74
2018-05-14T15:40:05.117Z,93.69
2018-05-14T15:41:05.119Z,97.42
2018-05-14T15:42:05.113Z,94.46
2018-05-14T15:43:05.109Z,97.61
2018-05-14T15:44:05.108Z,98.43
2018-05-14T15:45:05.109Z,98.24
2018-05-14T15:46:05.107Z,99.99
2018-05-14T15:47:05.101Z,99.99